Terminal Aerodrome Forecast
Issued by NWS Cleveland, OH

Home | Current Version | Previous Version | Text Only | Print | Product List | Glossary Off
Versions: 1 2 3 4 5 6 7 8 9 10 11 12 13 14 15 16 17 18

088
FTUS41 KCLE 211730
TAFYNG
TAF
KYNG 211730Z 2118/2218 06008KT 4SM -SHRA SCT005 OVC018
      TEMPO 2118/2120 2SM -DZ BR BKN005
     FM212000 04008KT 5SM -RA BR OVC015
     FM220100 36004KT 5SM BR BKN025 OVC060
     FM220800 32003KT 5SM BR SCT020 BKN080
     FM221500 33008KT P6SM VCSH OVC022=

USA.gov is the U.S. government's official web portal to all federal, state and local government web resources and services.